createdAt,value
2022-11-12T00:00:49.952Z,4.73
2022-11-12T00:03:17.470Z,3.87
2022-11-12T00:05:45.626Z,4.60
2022-11-12T00:08:13.166Z,4.47
2022-11-12T00:10:40.443Z,4.60
2022-11-12T00:13:07.935Z,4.63
2022-11-12T00:15:35.189Z,4.70
2022-11-12T00:18:02.461Z,4.53
2022-11-12T00:20:29.852Z,4.47
2022-11-12T00:22:57.136Z,3.93
2022-11-12T00:25:24.733Z,4.07
2022-11-12T00:27:51.981Z,3.90
2022-11-12T00:30:19.291Z,4.03
2022-11-12T00:32:47.233Z,3.90
2022-11-12T00:35:14.514Z,3.97
2022-11-12T00:37:41.779Z,3.80
2022-11-12T00:40:09.713Z,4.20
2022-11-12T00:42:36.990Z,4.23
2022-11-12T00:45:04.474Z,4.43
2022-11-12T00:47:31.774Z,4.23
2022-11-12T00:49:59.251Z,4.70
2022-11-12T00:52:26.619Z,4.40
2022-11-12T00:54:53.820Z,4.60
2022-11-12T00:57:21.130Z,4.27
2022-11-12T00:59:48.439Z,4.53
2022-11-12T01:02:16.024Z,4.50
2022-11-12T01:04:43.310Z,5.17
2022-11-12T01:07:10.659Z,5.07
2022-11-12T01:09:37.976Z,4.93
2022-11-12T01:12:05.489Z,4.60
2022-11-12T01:14:32.813Z,4.60
2022-11-12T01:17:00.083Z,4.43
2022-11-12T01:19:27.418Z,5.00
2022-11-12T01:21:54.702Z,4.40
2022-11-12T01:24:22.187Z,4.70
2022-11-12T01:26:49.502Z,4.37
2022-11-12T01:29:16.762Z,4.93
2022-11-12T01:31:44.216Z,4.17
2022-11-12T01:34:11.638Z,4.50
2022-11-12T01:36:40.468Z,4.43
2022-11-12T01:39:08.937Z,4.80
2022-11-12T01:41:37.464Z,5.60
2022-11-12T01:44:16.179Z,6.30
2022-11-12T01:46:49.828Z,5.33
2022-11-12T01:49:20.398Z,5.73
2022-11-12T01:51:49.774Z,6.43
2022-11-12T01:54:18.931Z,5.90
2022-11-12T01:56:46.687Z,6.00
2022-11-12T01:59:20.360Z,6.03
2022-11-12T02:01:47.742Z,5.33
2022-11-12T02:04:15.340Z,5.40
2022-11-12T02:06:43.857Z,5.47
2022-11-12T02:09:11.194Z,4.97
2022-11-12T02:11:38.739Z,5.00
2022-11-12T02:14:06.130Z,5.33
2022-11-12T02:16:44.638Z,4.70
2022-11-12T02:19:14.330Z,5.40
2022-11-12T02:21:41.852Z,5.00
2022-11-12T02:24:12.679Z,4.87
2022-11-12T02:26:42.427Z,5.57
2022-11-12T02:29:09.708Z,4.73
2022-11-12T02:31:37.140Z,4.63
2022-11-12T02:34:04.839Z,4.80
2022-11-12T02:36:32.227Z,5.00
2022-11-12T02:38:59.630Z,4.97
2022-11-12T02:41:27.215Z,5.67
2022-11-12T02:43:54.489Z,7.07
2022-11-12T02:46:21.760Z,7.33
2022-11-12T02:48:49.071Z,7.93
2022-11-12T02:51:16.529Z,6.53
2022-11-12T02:53:43.919Z,5.60
2022-11-12T02:56:11.171Z,5.50
2022-11-12T02:58:39.603Z,5.50
2022-11-12T03:01:06.984Z,4.97
2022-11-12T03:03:34.438Z,4.90
2022-11-12T03:06:02.083Z,4.50
2022-11-12T03:08:29.495Z,4.13
2022-11-12T03:10:57.074Z,5.07
2022-11-12T03:13:24.324Z,3.90
2022-11-12T03:15:51.513Z,4.20
2022-11-12T03:18:18.741Z,4.70
2022-11-12T03:20:47.027Z,4.70
2022-11-12T03:23:14.278Z,4.37
2022-11-12T03:25:41.494Z,4.70
2022-11-12T03:28:10.540Z,4.63
2022-11-12T03:30:42.419Z,4.80
2022-11-12T03:33:11.263Z,4.67
2022-11-12T03:35:39.355Z,4.80
2022-11-12T03:38:06.913Z,4.27
2022-11-12T03:40:35.303Z,4.57
2022-11-12T03:43:02.583Z,4.50
2022-11-12T03:45:29.930Z,4.67
2022-11-12T03:48:00.215Z,4.43
2022-11-12T03:50:29.123Z,4.60
2022-11-12T03:53:00.458Z,4.83
2022-11-12T03:55:28.855Z,3.73
2022-11-12T03:57:56.682Z,4.50
2022-11-12T04:00:24.977Z,4.13
2022-11-12T04:02:52.883Z,4.30
2022-11-12T04:05:38.719Z,4.10
2022-11-12T04:08:26.661Z,3.83
2022-11-12T04:10:54.115Z,3.50
2022-11-12T04:13:27.763Z,3.20
2022-11-12T04:16:22.207Z,3.80
2022-11-12T04:19:09.693Z,3.20
2022-11-12T04:21:51.852Z,2.80
2022-11-12T04:24:39.532Z,2.60
2022-11-12T04:27:07.005Z,3.20
2022-11-12T04:29:52.935Z,2.50
2022-11-12T04:32:20.633Z,2.20
2022-11-12T04:34:48.059Z,2.53
2022-11-12T04:37:17.817Z,2.40
2022-11-12T04:39:48.337Z,2.37
2022-11-12T04:42:34.075Z,2.90
2022-11-12T04:45:02.521Z,3.33
2022-11-12T04:47:31.012Z,3.40
2022-11-12T04:49:58.568Z,3.27
2022-11-12T04:52:26.720Z,3.20
2022-11-12T04:54:54.253Z,2.80
2022-11-12T04:57:21.859Z,3.10
2022-11-12T04:59:49.461Z,2.70
2022-11-12T05:02:17.756Z,2.67
2022-11-12T05:04:45.239Z,2.50
2022-11-12T05:07:12.782Z,2.70
2022-11-12T05:09:40.406Z,2.80
2022-11-12T05:12:07.736Z,2.70
2022-11-12T05:14:35.048Z,2.60
2022-11-12T05:17:02.804Z,2.57
2022-11-12T05:19:30.141Z,2.70
2022-11-12T05:22:06.469Z,2.87
2022-11-12T05:24:42.702Z,2.37
2022-11-12T05:27:18.404Z,2.70
2022-11-12T05:29:45.889Z,2.90
2022-11-12T05:32:14.509Z,2.80
2022-11-12T05:34:42.101Z,2.87
2022-11-12T05:37:10.001Z,2.83
2022-11-12T05:39:37.349Z,3.20
2022-11-12T05:42:13.501Z,4.70
2022-11-12T05:44:41.752Z,6.73
2022-11-12T05:47:09.111Z,8.43
2022-11-12T05:49:36.358Z,8.90
2022-11-12T05:52:03.569Z,5.97
2022-11-12T05:54:30.818Z,4.20
2022-11-12T05:56:58.117Z,3.73
2022-11-12T05:59:25.704Z,3.40
2022-11-12T06:01:53.247Z,3.17
2022-11-12T06:04:20.916Z,2.90
2022-11-12T06:06:48.412Z,3.37
2022-11-12T06:09:15.712Z,7.73
2022-11-12T06:11:43.043Z,4.70
2022-11-12T06:14:10.329Z,4.00
2022-11-12T06:16:38.022Z,3.80
2022-11-12T06:19:07.045Z,4.27
2022-11-12T06:21:34.305Z,4.43
2022-11-12T06:24:01.849Z,4.80
2022-11-12T06:26:30.632Z,3.67
2022-11-12T06:28:57.960Z,2.90
2022-11-12T06:31:25.321Z,2.47
2022-11-12T06:33:52.768Z,2.70
2022-11-12T06:36:20.928Z,3.20
2022-11-12T06:38:49.234Z,3.13
2022-11-12T06:41:16.762Z,3.70
2022-11-12T06:43:44.284Z,4.43
2022-11-12T06:46:15.994Z,3.40
2022-11-12T06:48:43.412Z,2.93
2022-11-12T06:51:12.590Z,2.70
2022-11-12T06:53:40.024Z,2.47
2022-11-12T06:56:08.701Z,2.47
2022-11-12T06:58:36.211Z,3.20
2022-11-12T07:01:11.503Z,3.70
2022-11-12T07:03:40.227Z,4.10
2022-11-12T07:06:08.688Z,4.00
2022-11-12T07:08:36.394Z,3.93
2022-11-12T07:11:03.833Z,3.63
2022-11-12T07:13:32.825Z,3.80
2022-11-12T07:16:00.540Z,4.13
2022-11-12T07:18:28.763Z,3.40
2022-11-12T07:21:03.676Z,3.30
2022-11-12T07:23:32.913Z,3.30
2022-11-12T07:26:04.603Z,2.97
2022-11-12T07:28:31.933Z,3.27
2022-11-12T07:31:02.084Z,2.97
2022-11-12T07:33:30.173Z,3.50
2022-11-12T07:35:58.784Z,4.97
2022-11-12T07:38:26.840Z,8.40
2022-11-12T07:40:59.480Z,9.50
2022-11-12T07:43:26.889Z,10.20
2022-11-12T07:45:54.116Z,14.63
2022-11-12T07:48:21.399Z,9.30
2022-11-12T07:50:48.827Z,6.20
2022-11-12T07:53:16.018Z,3.20
2022-11-12T07:55:43.375Z,2.80
2022-11-12T07:58:10.699Z,2.40
2022-11-12T08:00:39.009Z,2.40
2022-11-12T08:03:06.330Z,2.37
2022-11-12T08:05:34.690Z,2.57
2022-11-12T08:08:02.101Z,2.17
2022-11-12T08:10:29.807Z,3.13
2022-11-12T08:12:57.364Z,3.07
2022-11-12T08:15:24.870Z,2.70
2022-11-12T08:17:52.136Z,2.70
2022-11-12T08:20:19.343Z,3.13
2022-11-12T08:22:49.438Z,2.30
2022-11-12T08:25:19.174Z,2.23
2022-11-12T08:27:46.630Z,2.40
2022-11-12T08:30:14.170Z,2.30
2022-11-12T08:32:41.418Z,3.07
2022-11-12T08:35:08.819Z,2.90
2022-11-12T08:37:36.020Z,2.57
2022-11-12T08:40:03.286Z,3.23
2022-11-12T08:42:30.559Z,3.13
2022-11-12T08:44:57.878Z,3.33
2022-11-12T08:47:25.509Z,3.30
2022-11-12T08:49:52.922Z,3.43
2022-11-12T08:52:20.136Z,4.40
2022-11-12T08:54:47.447Z,4.10
2022-11-12T08:57:15.128Z,5.03
2022-11-12T08:59:42.365Z,4.43
2022-11-12T09:02:14.065Z,5.43
2022-11-12T09:04:41.359Z,4.13
2022-11-12T09:07:09.623Z,4.20
2022-11-12T09:09:37.418Z,3.87
2022-11-12T09:12:13.674Z,3.67
2022-11-12T09:14:43.768Z,3.33
2022-11-12T09:17:11.187Z,3.53
2022-11-12T09:19:42.653Z,3.47
2022-11-12T09:22:10.449Z,3.40
2022-11-12T09:24:38.006Z,3.43
2022-11-12T09:27:05.403Z,3.80
2022-11-12T09:29:32.812Z,6.33
2022-11-12T09:32:00.572Z,5.77
2022-11-12T09:34:27.892Z,6.50
2022-11-12T09:36:56.191Z,7.13
2022-11-12T09:39:23.585Z,7.53
2022-11-12T09:41:50.868Z,7.07
2022-11-12T09:44:20.304Z,7.47
2022-11-12T09:47:17.140Z,6.10
2022-11-12T09:49:50.227Z,5.67
2022-11-12T09:52:20.255Z,5.60
2022-11-12T09:54:51.171Z,3.87
2022-11-12T09:57:18.500Z,3.60
2022-11-12T09:59:45.748Z,3.90
2022-11-12T10:02:30.772Z,3.83
2022-11-12T10:05:04.203Z,4.00
2022-11-12T10:07:34.492Z,3.50
2022-11-12T10:10:15.971Z,3.33
2022-11-12T10:13:02.992Z,3.00
2022-11-12T10:15:51.987Z,3.50
2022-11-12T10:18:25.551Z,3.60
2022-11-12T10:20:57.070Z,3.70
2022-11-12T10:23:33.602Z,3.43
2022-11-12T10:26:02.430Z,2.93
2022-11-12T10:28:38.225Z,3.20
2022-11-12T10:31:13.837Z,2.90
2022-11-12T10:33:41.090Z,3.67
2022-11-12T10:36:27.491Z,4.13
2022-11-12T10:38:55.365Z,4.00
2022-11-12T10:41:27.486Z,3.37
2022-11-12T10:43:56.676Z,3.13
2022-11-12T10:46:25.801Z,3.00
2022-11-12T10:49:00.124Z,2.90
2022-11-12T10:51:29.616Z,2.37
2022-11-12T10:53:57.293Z,2.60
2022-11-12T10:56:26.045Z,3.20
2022-11-12T10:59:14.692Z,3.10
2022-11-12T11:01:45.686Z,2.70
2022-11-12T11:04:18.063Z,2.40
2022-11-12T11:06:45.456Z,2.87
2022-11-12T11:09:12.869Z,2.73
2022-11-12T11:11:49.157Z,2.30
2022-11-12T11:14:25.190Z,2.83
2022-11-12T11:16:53.830Z,3.40
2022-11-12T11:19:21.541Z,2.63
2022-11-12T11:21:51.853Z,2.77
2022-11-12T11:24:28.363Z,2.83
2022-11-12T11:27:14.397Z,3.60
2022-11-12T11:29:41.673Z,3.55
2022-11-12T11:32:10.009Z,3.30
2022-11-12T11:34:49.593Z,3.60
2022-11-12T11:37:26.344Z,3.25
2022-11-12T11:39:59.819Z,2.90
2022-11-12T11:42:27.143Z,3.28
2022-11-12T11:44:57.503Z,3.28
2022-11-12T11:47:59.443Z,3.42
2022-11-12T11:50:30.270Z,2.75
2022-11-12T11:53:10.156Z,2.47
2022-11-12T11:55:43.649Z,2.50
2022-11-12T11:58:21.329Z,2.70
2022-11-12T12:00:48.625Z,9.15
2022-11-12T12:03:21.079Z,2.85
2022-11-12T12:05:59.118Z,2.80
2022-11-12T12:08:37.236Z,2.75
2022-11-12T12:11:11.517Z,2.22
2022-11-12T12:13:47.537Z,2.20
2022-11-12T12:16:33.352Z,2.13
2022-11-12T12:19:08.917Z,1.80
2022-11-12T12:21:38.985Z,1.80
2022-11-12T12:24:18.295Z,2.13
2022-11-12T12:27:04.736Z,3.28
2022-11-12T12:29:41.668Z,3.85
2022-11-12T12:32:15.329Z,2.67
2022-11-12T12:34:44.221Z,2.22
2022-11-12T12:37:11.442Z,2.17
2022-11-12T12:39:48.089Z,2.35
2022-11-12T12:42:31.593Z,2.00
2022-11-12T12:45:00.772Z,2.38
2022-11-12T12:47:54.585Z,2.70
2022-11-12T12:50:23.253Z,2.58
2022-11-12T12:53:01.361Z,2.50
2022-11-12T12:55:40.317Z,2.40
2022-11-12T12:58:16.713Z,2.80
2022-11-12T13:00:48.108Z,2.58
2022-11-12T13:03:35.310Z,2.65
2022-11-12T13:06:09.687Z,2.35
2022-11-12T13:08:37.236Z,2.20
2022-11-12T13:11:04.493Z,2.80
2022-11-12T13:13:33.673Z,2.45
2022-11-12T13:16:01.591Z,3.10
2022-11-12T13:18:41.160Z,2.80
2022-11-12T13:21:11.463Z,2.75
2022-11-12T13:24:04.892Z,3.00
2022-11-12T13:26:55.338Z,3.03
2022-11-12T13:29:22.620Z,3.00
2022-11-12T13:31:50.076Z,3.30
2022-11-12T13:34:25.985Z,3.93
2022-11-12T13:37:01.410Z,5.57
2022-11-12T13:39:29.375Z,3.93
2022-11-12T13:42:19.369Z,3.60
2022-11-12T13:44:49.965Z,4.10
2022-11-12T13:47:24.498Z,3.60
2022-11-12T13:49:51.785Z,3.37
2022-11-12T13:52:20.134Z,3.80
2022-11-12T13:54:47.531Z,3.33
2022-11-12T13:57:20.962Z,3.27
2022-11-12T13:59:48.374Z,3.40
2022-11-12T14:02:18.729Z,3.40
2022-11-12T14:04:46.008Z,4.10
2022-11-12T14:07:28.748Z,4.10
2022-11-12T14:09:55.956Z,4.00
2022-11-12T14:12:26.478Z,4.30
2022-11-12T14:15:09.375Z,4.57
2022-11-12T14:17:55.086Z,4.17
2022-11-12T14:20:37.126Z,3.97
2022-11-12T14:23:18.804Z,3.80
2022-11-12T14:25:55.599Z,3.80
2022-11-12T14:28:43.429Z,5.60
2022-11-12T14:31:14.755Z,7.83
2022-11-12T14:33:42.264Z,9.80
2022-11-12T14:36:14.831Z,5.67
2022-11-12T14:38:47.511Z,7.30
2022-11-12T14:41:21.208Z,3.93
2022-11-12T14:43:54.986Z,4.50
2022-11-12T14:46:32.760Z,3.57
2022-11-12T14:49:00.030Z,3.70
2022-11-12T14:51:29.087Z,3.80
2022-11-12T14:54:11.246Z,4.00
2022-11-12T14:56:41.965Z,4.17
2022-11-12T14:59:12.685Z,3.60
2022-11-12T15:04:27.956Z,4.30
2022-11-12T15:06:56.271Z,4.10
2022-11-12T15:09:37.546Z,4.00
2022-11-12T15:12:06.376Z,4.73
2022-11-12T15:14:34.226Z,4.80
2022-11-12T15:17:01.701Z,5.20
2022-11-12T15:19:29.700Z,7.23
2022-11-12T15:21:58.760Z,5.20
2022-11-12T15:24:30.107Z,13.30
2022-11-12T15:26:58.958Z,9.37
2022-11-12T15:29:36.120Z,5.60
2022-11-12T15:32:08.600Z,4.83
2022-11-12T15:34:41.375Z,4.43
2022-11-12T15:37:21.102Z,4.77
2022-11-12T15:39:52.916Z,5.27
2022-11-12T15:42:38.389Z,5.10
2022-11-12T15:45:15.648Z,5.10
2022-11-12T15:47:43.036Z,6.57
2022-11-12T15:50:22.611Z,29.20
2022-11-12T15:52:50.329Z,14.73
2022-11-12T15:55:18.870Z,14.27
2022-11-12T15:57:50.621Z,8.13
2022-11-12T16:00:19.318Z,8.00
2022-11-12T16:02:48.065Z,6.40
2022-11-12T16:05:15.958Z,11.17
2022-11-12T16:07:43.353Z,7.63
2022-11-12T16:10:14.022Z,6.70
2022-11-12T16:12:41.637Z,7.50
2022-11-12T16:15:16.159Z,6.87
2022-11-12T16:17:43.396Z,5.83
2022-11-12T16:20:14.619Z,6.80
2022-11-12T16:22:42.101Z,6.10
2022-11-12T16:25:10.185Z,9.33
2022-11-12T16:27:38.847Z,9.80
2022-11-12T16:30:07.794Z,9.23
2022-11-12T16:32:35.032Z,10.23
2022-11-12T16:35:02.359Z,7.87
2022-11-12T16:37:31.246Z,8.63
2022-11-12T16:39:58.644Z,9.90
2022-11-12T16:42:25.876Z,16.20
2022-11-12T16:44:53.742Z,29.93
2022-11-12T16:47:21.434Z,10.10
2022-11-12T16:49:48.867Z,9.73
2022-11-12T16:52:16.655Z,9.33
2022-11-12T16:54:44.256Z,8.07
2022-11-12T16:57:13.668Z,8.50
2022-11-12T16:59:40.999Z,7.27
2022-11-12T17:02:15.378Z,8.60
2022-11-12T17:04:42.936Z,8.40
2022-11-12T17:07:10.216Z,13.23
2022-11-12T17:09:37.562Z,13.03
2022-11-12T17:12:05.034Z,15.40
2022-11-12T17:14:32.733Z,12.73
2022-11-12T17:17:00.459Z,7.30
2022-11-12T17:19:27.886Z,6.23
2022-11-12T17:21:55.602Z,5.30
2022-11-12T17:24:23.059Z,9.23
2022-11-12T17:26:50.312Z,10.23
2022-11-12T17:29:18.362Z,9.60
2022-11-12T17:31:49.394Z,7.00
2022-11-12T17:34:16.681Z,9.63
2022-11-12T17:36:44.141Z,7.07
2022-11-12T17:39:12.466Z,7.10
2022-11-12T17:41:40.266Z,6.67
2022-11-12T17:44:07.707Z,5.90
2022-11-12T17:46:35.991Z,5.47
2022-11-12T17:49:04.074Z,5.17
2022-11-12T17:51:31.444Z,4.37
2022-11-12T17:53:58.735Z,4.80
2022-11-12T17:56:26.001Z,5.50
2022-11-12T17:58:53.491Z,5.37
2022-11-12T18:01:22.260Z,5.67
2022-11-12T18:03:50.501Z,5.37
2022-11-12T18:06:22.677Z,6.13
2022-11-12T18:08:54.489Z,7.20
2022-11-12T18:11:21.978Z,7.60
2022-11-12T18:13:49.375Z,7.50
2022-11-12T18:16:16.663Z,7.10
2022-11-12T18:18:44.056Z,5.90
2022-11-12T18:21:11.645Z,6.30
2022-11-12T18:23:44.164Z,6.33
2022-11-12T18:26:13.973Z,6.10
2022-11-12T18:28:41.690Z,7.27
2022-11-12T18:31:09.230Z,7.27
2022-11-12T18:33:37.742Z,6.80
2022-11-12T18:36:06.274Z,6.97
2022-11-12T18:38:34.842Z,7.33
2022-11-12T18:41:09.462Z,8.30
2022-11-12T18:43:37.194Z,9.17
2022-11-12T18:46:05.061Z,9.90
2022-11-12T18:48:33.078Z,10.00
2022-11-12T18:51:01.726Z,11.23
2022-11-12T18:53:30.007Z,11.23
2022-11-12T18:56:02.300Z,12.60
2022-11-12T18:58:34.896Z,12.33
2022-11-12T19:01:10.946Z,11.80
2022-11-12T19:03:38.504Z,9.10
2022-11-12T19:06:07.201Z,6.07
2022-11-12T19:08:35.180Z,7.30
2022-11-12T19:11:05.803Z,7.87
2022-11-12T19:13:33.163Z,8.37
2022-11-12T19:16:05.062Z,6.23
2022-11-12T19:18:32.542Z,7.37
2022-11-12T19:21:16.593Z,7.97
2022-11-12T19:23:44.065Z,11.13
2022-11-12T19:26:18.215Z,11.17
2022-11-12T19:28:45.709Z,11.57
2022-11-12T19:31:20.184Z,11.53
2022-11-12T19:33:47.621Z,9.57
2022-11-12T19:36:16.936Z,9.40
2022-11-12T19:38:44.356Z,11.50
2022-11-12T19:41:19.438Z,14.70
2022-11-12T19:43:47.804Z,17.07
2022-11-12T19:46:15.982Z,21.80
2022-11-12T19:48:43.843Z,22.33
2022-11-12T19:51:11.818Z,24.10
2022-11-12T19:53:46.556Z,24.50
2022-11-12T19:56:17.454Z,21.03
2022-11-12T19:58:48.682Z,19.93
2022-11-12T20:01:17.408Z,19.00
2022-11-12T20:03:45.431Z,17.17
2022-11-12T20:06:17.928Z,17.27
2022-11-12T20:08:45.463Z,17.33
2022-11-12T20:11:13.084Z,16.57
2022-11-12T20:13:40.563Z,16.83
2022-11-12T20:16:13.149Z,14.73
2022-11-12T20:18:40.852Z,12.83
2022-11-12T20:21:09.237Z,15.03
2022-11-12T20:23:37.149Z,15.60
2022-11-12T20:26:06.049Z,12.70
2022-11-12T20:28:34.029Z,13.37
2022-11-12T20:31:12.275Z,11.77
2022-11-12T20:33:42.514Z,12.30
2022-11-12T20:36:11.671Z,12.30
2022-11-12T20:38:42.991Z,13.17
2022-11-12T20:41:15.280Z,14.00
2022-11-12T20:43:42.877Z,13.63
2022-11-12T20:46:11.319Z,17.37
2022-11-12T20:48:43.050Z,20.63
2022-11-12T20:51:27.875Z,20.33
2022-11-12T20:53:59.309Z,18.03
2022-11-12T20:56:28.406Z,15.77
2022-11-12T20:58:55.642Z,17.63
2022-11-12T21:01:23.832Z,10.47
2022-11-12T21:03:51.513Z,11.37
2022-11-12T21:06:21.327Z,11.50
2022-11-12T21:08:48.901Z,12.97
2022-11-12T21:11:17.710Z,15.70
2022-11-12T21:13:45.573Z,17.73
2022-11-12T21:16:13.425Z,17.73
2022-11-12T21:18:41.000Z,11.07
2022-11-12T21:21:12.692Z,11.73
2022-11-12T21:23:41.808Z,13.60
2022-11-12T21:26:13.708Z,9.37
2022-11-12T21:28:44.676Z,7.23
2022-11-12T21:31:13.297Z,5.53
2022-11-12T21:33:40.647Z,6.10
2022-11-12T21:36:13.150Z,5.37
2022-11-12T21:38:43.287Z,4.77
2022-11-12T21:41:12.202Z,4.10
2022-11-12T21:43:40.272Z,3.67
2022-11-12T21:46:08.737Z,2.97
2022-11-12T21:48:36.745Z,3.43
2022-11-12T21:51:06.365Z,3.33
2022-11-12T21:53:34.370Z,3.10
2022-11-12T21:56:30.916Z,3.50
2022-11-12T21:59:01.777Z,3.90
2022-11-12T22:01:30.756Z,4.73
2022-11-12T22:03:59.626Z,3.93
2022-11-12T22:06:28.664Z,3.50
2022-11-12T22:08:56.521Z,3.47
2022-11-12T22:11:23.921Z,3.30
2022-11-12T22:13:51.312Z,3.20
2022-11-12T22:16:23.858Z,3.30
2022-11-12T22:18:52.154Z,4.20
2022-11-12T22:21:23.592Z,4.43
2022-11-12T22:23:50.820Z,4.43
2022-11-12T22:26:20.842Z,3.83
2022-11-12T22:28:48.695Z,3.50
2022-11-12T22:31:17.461Z,2.90
2022-11-12T22:33:45.026Z,3.30
2022-11-12T22:36:13.455Z,3.00
2022-11-12T22:38:42.125Z,3.67
2022-11-12T22:41:10.923Z,4.90
2022-11-12T22:43:38.732Z,4.77
2022-11-12T22:46:06.279Z,6.83
2022-11-12T22:48:34.228Z,5.00
2022-11-12T22:51:02.299Z,4.50
2022-11-12T22:53:30.015Z,3.97
2022-11-12T22:56:02.142Z,4.50
2022-11-12T22:58:29.874Z,3.83
2022-11-12T23:00:58.011Z,3.50
2022-11-12T23:03:25.361Z,3.70
2022-11-12T23:05:59.555Z,3.70
2022-11-12T23:08:27.363Z,3.67
2022-11-12T23:10:54.798Z,2.87
2022-11-12T23:13:22.308Z,3.47
2022-11-12T23:15:49.680Z,3.17
2022-11-12T23:18:17.399Z,3.47
2022-11-12T23:20:44.662Z,3.53
2022-11-12T23:23:11.876Z,3.40
2022-11-12T23:25:39.250Z,4.00
2022-11-12T23:28:09.244Z,3.60
2022-11-12T23:30:36.980Z,3.77
2022-11-12T23:33:04.597Z,3.97
2022-11-12T23:35:31.853Z,3.80
2022-11-12T23:37:59.209Z,3.40
2022-11-12T23:40:30.981Z,3.40
2022-11-12T23:42:58.757Z,3.30
2022-11-12T23:45:26.004Z,3.43
2022-11-12T23:47:55.553Z,3.43
2022-11-12T23:50:22.767Z,3.43
2022-11-12T23:52:50.049Z,3.23
2022-11-12T23:55:17.429Z,3.90
2022-11-12T23:57:44.743Z,3.17
